Great Notch, New Jersey
Current Conditions -  °F | °C
As of 1:53 AM on Sunday 23 Nov 2014 (Local Time) from KCDW Reporting Station
Clear Clear  
Wind Chill: 38°   Ceiling: Unl
Heat Index: 41°   Visibility: 10mi
Dew Point: 19°   Wind: 5mph
Humidity: 41%   Direction: 230°SW
Pressure: 30.18"   Gusts: NA
Location:  40.8835°N, 74.2057°W
Report Text: KCDW 230653Z AUTO 23004KT 10SM CLR 05/M07 A3018 RMK AO2 SLP227 T00501072 TSNO
Loading
Personal Weather Stations






























Interactive Weather Map New forecast layout! Learn more

10-Day Weather Forecast

Advertisements
Track Severe Weather on mobile